Time;durP1;ratioP1;P1;durP2;ratioP2;P2;SDS_P1;SDS_P2;PMS_P1;PMS_P2;Temp;Humidity;BMP_temperature;BMP_pressure;BME280_temperature;BME280_humidity;BME280_pressure;Samples;Min_cycle;Max_cycle;Signal;HPM_P1;HPM_P2
2023/05/22 00:00:23;;;;;;;1999.90;999.90;;;;;;;22.73;47.98;101699.34;5056295;28;20327;-67
2023/05/22 00:02:49;;;;;;;1999.90;999.90;;;;;;;23.66;45.45;101692.16;5057963;28;20082;-67
2023/05/22 00:05:17;;;;;;;1999.90;999.90;;;;;;;22.71;47.73;101690.59;5050373;28;20024;-67
2023/05/22 00:07:42;;;;;;;1999.90;999.90;;;;;;;23.10;47.12;101689.56;5050111;28;20385;-67
2023/05/22 00:10:08;;;;;;;1999.90;999.90;;;;;;;22.69;47.75;101689.78;5048278;28;20021;-67
2023/05/22 00:12:34;;;;;;;1999.90;999.90;;;;;;;22.28;48.79;101696.06;5052781;28;20133;-66
2023/05/22 00:15:00;;;;;;;1999.90;999.90;;;;;;;22.28;49.53;101695.22;5069738;28;20477;-67
2023/05/22 00:17:25;;;;;;;1999.90;999.90;;;;;;;23.07;47.21;101700.41;5068626;28;20031;-67
2023/05/22 00:19:54;;;;;;;1999.90;999.90;;;;;;;22.28;49.03;101700.53;5063876;28;20029;-66
2023/05/22 00:22:20;;;;;;;1999.90;999.90;;;;;;;21.42;51.27;101713.97;5046472;28;20055;-67
2023/05/22 00:24:45;;;;;;;1999.90;999.90;;;;;;;21.89;50.04;101709.38;5049756;28;20501;-66
2023/05/22 00:27:11;;;;;;;1999.90;999.90;;;;;;;21.92;50.14;101704.78;5061596;28;20131;-66
2023/05/22 00:29:36;;;;;;;1999.90;999.90;;;;;;;22.29;49.99;101702.28;5066993;28;20095;-67
2023/05/22 00:32:01;;;;;;;1999.90;999.90;;;;;;;22.33;48.21;101709.19;5064658;28;20021;-67
2023/05/22 00:34:27;;;;;;;1999.90;999.90;;;;;;;23.17;47.20;101701.69;5057959;28;20017;-66
2023/05/22 00:36:52;;;;;;;1999.90;999.90;;;;;;;23.39;46.60;101689.94;5047588;28;20489;-66
2023/05/22 00:39:17;;;;;;;1999.90;999.90;;;;;;;23.20;46.99;101685.56;5049001;28;20024;-66
2023/05/22 00:41:43;;;;;;;1999.90;999.90;;;;;;;22.96;47.78;101681.41;5052983;28;20023;-66
2023/05/22 00:44:09;;;;;;;1999.90;999.90;;;;;;;22.38;49.31;101680.59;5048510;28;20171;-66
2023/05/22 00:46:35;;;;;;;1999.90;999.90;;;;;;;22.34;49.75;101671.00;5058211;28;20035;-66
2023/05/22 00:49:00;;;;;;;1999.90;999.90;;;;;;;22.31;49.08;101663.09;5048558;28;20048;-67
2023/05/22 00:51:26;;;;;;;1999.90;999.90;;;;;;;22.81;48.26;101656.38;5046844;28;20082;-66
2023/05/22 00:53:53;;;;;;;1999.90;999.90;;;;;;;22.77;47.99;101666.28;5048966;28;20043;-67
2023/05/22 00:56:20;;;;;;;1999.90;999.90;;;;;;;22.67;48.86;101665.03;5067205;28;20115;-66
2023/05/22 00:58:45;;;;;;;1999.90;999.90;;;;;;;22.75;48.69;101654.88;5064747;28;20052;-67
2023/05/22 01:01:11;;;;;;;1999.90;999.90;;;;;;;22.32;49.15;101667.50;5051174;28;20032;-67
2023/05/22 01:03:43;;;;;;;1999.90;999.90;;;;;;;21.79;51.41;101666.31;5051651;28;20040;-67
2023/05/22 01:06:11;;;;;;;1999.90;999.90;;;;;;;22.08;50.68;101646.41;5055070;28;20024;-67
2023/05/22 01:08:37;;;;;;;1999.90;999.90;;;;;;;21.72;50.80;101644.47;5049948;28;20025;-68
2023/05/22 01:11:16;;;;;;;1999.90;999.90;;;;;;;22.45;49.74;101633.19;5067545;28;20035;-67
2023/05/22 01:14:14;;;;;;;1999.90;999.90;;;;;;;21.97;50.55;101630.91;5055074;28;20035;-67
2023/05/22 01:17:01;;;;;;;1999.90;999.90;;;;;;;21.90;50.50;101632.16;5053237;28;20033;-67
2023/05/22 01:19:52;;;;;;;1999.90;999.90;;;;;;;22.49;48.71;101635.66;5057571;28;20081;-66
2023/05/22 01:22:34;;;;;;;1999.90;999.90;;;;;;;22.37;48.62;101636.25;5055585;28;20437;-67
2023/05/22 01:24:59;;;;;;;1999.90;999.90;;;;;;;21.81;50.68;101637.88;5060946;28;20038;-68
2023/05/22 01:27:38;;;;;;;1999.90;999.90;;;;;;;22.68;48.52;101626.75;5056594;28;20037;-67
2023/05/22 01:30:32;;;;;;;1999.90;999.90;;;;;;;21.85;51.19;101629.66;5059161;28;20093;-67
2023/05/22 01:32:58;;;;;;;1999.90;999.90;;;;;;;21.13;52.01;101630.97;5065842;28;20043;-67
2023/05/22 01:35:26;;;;;;;1999.90;999.90;;;;;;;21.96;49.72;101617.69;5046924;28;20304;-67
2023/05/22 01:37:53;;;;;;;1999.90;999.90;;;;;;;21.67;51.37;101614.53;5062021;28;20036;-67
2023/05/22 01:40:19;;;;;;;1999.90;999.90;;;;;;;21.35;52.41;101609.66;5047367;28;20442;-67
2023/05/22 01:42:45;;;;;;;1999.90;999.90;;;;;;;22.32;49.07;101598.28;5049018;28;20073;-66
2023/05/22 01:45:11;;;;;;;1999.90;999.90;;;;;;;21.19;52.29;101614.75;5063214;28;20036;-67
2023/05/22 01:47:36;;;;;;;1999.90;999.90;;;;;;;21.01;53.45;101600.47;5062923;28;20013;-67
2023/05/22 01:50:03;;;;;;;1999.90;999.90;;;;;;;21.11;52.82;101606.25;5066517;28;20396;-67
2023/05/22 01:53:07;;;;;;;1999.90;999.90;;;;;;;21.58;53.28;101609.63;5060873;28;20063;-67
2023/05/22 01:55:46;;;;;;;1999.90;999.90;;;;;;;21.47;52.63;101608.28;4987802;28;20037;-67
2023/05/22 01:58:25;;;;;;;1999.90;999.90;;;;;;;22.00;51.01;101600.66;5058440;28;20135;-67
2023/05/22 02:00:55;;;;;;;1999.90;999.90;;;;;;;22.01;51.24;101602.38;5047910;28;20039;-67
2023/05/22 02:03:26;;;;;;;1999.90;999.90;;;;;;;21.52;51.81;101606.28;5048794;28;20020;-66
2023/05/22 02:05:54;;;;;;;1999.90;999.90;;;;;;;22.32;49.21;101591.13;5053098;28;20033;-67
2023/05/22 02:08:21;;;;;;;1999.90;999.90;;;;;;;22.19;50.17;101590.84;5053764;28;20025;-67
2023/05/22 02:10:48;;;;;;;1999.90;999.90;;;;;;;21.69;51.57;101581.63;5050991;28;20086;-66
2023/05/22 02:13:14;;;;;;;1999.90;999.90;;;;;;;22.01;50.87;101587.25;5055988;28;20028;-68
2023/05/22 02:15:42;;;;;;;1999.90;999.90;;;;;;;22.63;48.90;101584.38;5062707;28;20039;-67
2023/05/22 02:18:13;;;;;;;1999.90;999.90;;;;;;;21.90;50.83;101586.91;5057835;28;20409;-67
2023/05/22 02:20:39;;;;;;;1999.90;999.90;;;;;;;21.79;51.67;101582.06;5060435;28;20060;-66
2023/05/22 02:23:04;;;;;;;1999.90;999.90;;;;;;;21.73;51.39;101582.31;5068232;28;20068;-67
2023/05/22 02:25:30;;;;;;;1999.90;999.90;;;;;;;22.49;49.78;101582.38;5064704;28;20025;-67
2023/05/22 02:27:55;;;;;;;1999.90;999.90;;;;;;;22.04;50.54;101580.94;5049823;28;20460;-67
2023/05/22 02:30:21;;;;;;;1999.90;999.90;;;;;;;22.28;50.23;101586.88;5064692;28;20028;-67
2023/05/22 02:32:46;;;;;;;1999.90;999.90;;;;;;;22.50;50.05;101599.22;5069452;28;20035;-67
2023/05/22 02:35:11;;;;;;;1999.90;999.90;;;;;;;23.23;47.94;101593.84;5055730;28;20118;-67
2023/05/22 02:37:37;;;;;;;1999.90;999.90;;;;;;;23.32;46.79;101587.19;5054716;28;20032;-67
2023/05/22 02:40:08;;;;;;;1999.90;999.90;;;;;;;22.46;49.70;101619.84;5054999;28;20039;-67
2023/05/22 02:42:34;;;;;;;1999.90;999.90;;;;;;;22.80;48.66;101610.19;5063156;28;20040;-67
2023/05/22 02:45:00;;;;;;;1999.90;999.90;;;;;;;22.83;47.96;101610.06;5054152;28;20028;-67
2023/05/22 02:47:26;;;;;;;1999.90;999.90;;;;;;;23.19;46.99;101600.28;5054426;28;20032;-67
2023/05/22 02:49:51;;;;;;;1999.90;999.90;;;;;;;22.80;48.04;101598.66;5056118;28;20131;-67
2023/05/22 02:52:16;;;;;;;1999.90;999.90;;;;;;;22.84;48.56;101600.25;5063724;28;20039;-67
2023/05/22 02:54:42;;;;;;;1999.90;999.90;;;;;;;21.89;51.59;101602.94;5061243;28;20064;-67
2023/05/22 02:57:07;;;;;;;1999.90;999.90;;;;;;;22.05;49.47;101592.44;5064921;28;20041;-68
2023/05/22 02:59:34;;;;;;;1999.90;999.90;;;;;;;21.78;51.13;101590.97;5061386;28;20029;-67
2023/05/22 03:02:00;;;;;;;1999.90;999.90;;;;;;;22.94;47.96;101584.66;5057238;28;20055;-67
2023/05/22 03:04:25;;;;;;;1999.90;999.90;;;;;;;22.76;48.47;101583.78;5056323;28;20032;-67
2023/05/22 03:06:51;;;;;;;1999.90;999.90;;;;;;;22.72;48.75;101588.38;5063327;28;20024;-67
2023/05/22 03:09:16;;;;;;;1999.90;999.90;;;;;;;23.24;46.93;101589.41;5055717;28;20064;-67
2023/05/22 03:11:41;;;;;;;1999.90;999.90;;;;;;;23.27;47.43;101583.91;5050350;28;20110;-67
2023/05/22 03:14:07;;;;;;;1999.90;999.90;;;;;;;23.09;47.77;101586.53;5057953;28;20021;-66
2023/05/22 03:16:33;;;;;;;1999.90;999.90;;;;;;;22.78;48.58;101585.41;5047701;28;20024;-67
2023/05/22 03:19:12;;;;;;;1999.90;999.90;;;;;;;22.14;49.93;101576.03;5053166;28;20024;-67
2023/05/22 03:21:38;;;;;;;1999.90;999.90;;;;;;;21.63;51.60;101584.53;5067652;28;20056;-67
2023/05/22 03:24:04;;;;;;;1999.90;999.90;;;;;;;22.01;50.69;101591.72;5049903;28;20033;-66
2023/05/22 03:26:30;;;;;;;1999.90;999.90;;;;;;;21.55;51.56;101575.19;5049268;28;20078;-67
2023/05/22 03:28:56;;;;;;;1999.90;999.90;;;;;;;21.41;52.30;101591.72;5050484;28;20024;-66
2023/05/22 03:31:24;;;;;;;1999.90;999.90;;;;;;;21.63;52.04;101581.03;5065326;28;20028;-67
2023/05/22 03:33:49;;;;;;;1999.90;999.90;;;;;;;21.94;50.63;101587.59;5067438;28;20047;-67
2023/05/22 03:36:15;;;;;;;1999.90;999.90;;;;;;;21.42;52.33;101596.09;5052059;28;20033;-67
2023/05/22 03:38:40;;;;;;;1999.90;999.90;;;;;;;21.15;53.20;101585.72;5053037;28;20024;-67
2023/05/22 03:41:06;;;;;;;1999.90;999.90;;;;;;;22.08;51.12;101571.88;5048868;28;20152;-67
2023/05/22 03:43:32;;;;;;;1999.90;999.90;;;;;;;21.95;51.13;101571.56;5049334;28;20025;-67
2023/05/22 03:45:58;;;;;;;1999.90;999.90;;;;;;;22.00;51.91;101568.72;5049085;28;20507;-67
2023/05/22 03:48:23;;;;;;;1999.90;999.90;;;;;;;21.61;52.17;101566.91;5052770;28;20474;-67
2023/05/22 03:50:49;;;;;;;1999.90;999.90;;;;;;;20.97;54.27;101572.28;5048375;28;20119;-67
2023/05/22 03:53:15;;;;;;;1999.90;999.90;;;;;;;21.88;53.35;101569.28;5052273;28;20098;-67
2023/05/22 03:55:40;;;;;;;1999.90;999.90;;;;;;;21.81;53.23;101568.69;5056908;28;20559;-67
2023/05/22 03:58:06;;;;;;;1999.90;999.90;;;;;;;22.04;52.85;101567.63;5052994;28;20051;-67
2023/05/22 04:00:32;;;;;;;1999.90;999.90;;;;;;;21.24;55.44;101582.69;5066366;28;20058;-66
2023/05/22 04:02:57;;;;;;;1999.90;999.90;;;;;;;21.97;52.37;101585.69;5066656;28;20039;-67
2023/05/22 04:05:23;;;;;;;1999.90;999.90;;;;;;;21.75;53.50;101572.50;5068122;28;20490;-68
2023/05/22 04:07:48;;;;;;;1999.90;999.90;;;;;;;22.45;52.47;101580.81;5055734;28;20477;-67
2023/05/22 04:10:14;;;;;;;1999.90;999.90;;;;;;;21.56;54.09;101574.25;5062737;28;20032;-67
2023/05/22 04:12:39;;;;;;;1999.90;999.90;;;;;;;22.07;52.65;101572.81;5067408;28;20441;-67
2023/05/22 04:15:06;;;;;;;1999.90;999.90;;;;;;;22.17;52.69;101571.44;5049844;28;20029;-66
2023/05/22 04:17:32;;;;;;;1999.90;999.90;;;;;;;22.55;51.13;101565.22;5067221;28;20028;-67
2023/05/22 04:19:59;;;;;;;1999.90;999.90;;;;;;;21.75;52.64;101572.50;5050113;28;20636;-67
2023/05/22 04:22:26;;;;;;;1999.90;999.90;;;;;;;21.57;53.97;101570.66;5067277;28;20221;-67
2023/05/22 04:24:52;;;;;;;1999.90;999.90;;;;;;;21.98;52.94;101571.44;5052509;28;20033;-67
2023/05/22 04:27:20;;;;;;;1999.90;999.90;;;;;;;21.96;53.03;101578.63;5047672;28;20032;-67
2023/05/22 04:29:46;;;;;;;1999.90;999.90;;;;;;;21.81;52.62;101582.84;5048068;28;20037;-66
2023/05/22 04:32:11;;;;;;;1999.90;999.90;;;;;;;21.64;54.94;101588.09;5062213;28;20037;-67
2023/05/22 04:34:36;;;;;;;1999.90;999.90;;;;;;;21.80;53.27;101577.59;5067229;28;20038;-67
2023/05/22 04:37:05;;;;;;;1999.90;999.90;;;;;;;20.68;57.93;101592.09;5062143;28;20179;-66
2023/05/22 04:39:31;;;;;;;1999.90;999.90;;;;;;;20.86;58.69;101586.97;5048564;28;20056;-67
2023/05/22 04:41:57;;;;;;;1999.90;999.90;;;;;;;21.79;54.76;101584.72;5065361;28;20040;-67
2023/05/22 04:44:22;;;;;;;1999.90;999.90;;;;;;;21.42;55.65;101591.66;5061909;28;20445;-66
2023/05/22 04:46:48;;;;;;;1999.90;999.90;;;;;;;20.42;58.79;101585.13;5052101;28;20040;-67
2023/05/22 04:49:13;;;;;;;1999.90;999.90;;;;;;;20.25;60.86;101588.44;5067239;28;20523;-67
2023/05/22 04:51:38;;;;;;;1999.90;999.90;;;;;;;21.82;55.31;101581.91;5059954;28;20499;-67
2023/05/22 04:54:04;;;;;;;1999.90;999.90;;;;;;;22.01;55.12;101584.59;5064677;28;20063;-67
2023/05/22 04:56:30;;;;;;;1999.90;999.90;;;;;;;21.81;53.65;101589.97;5057279;28;20025;-67
2023/05/22 04:58:56;;;;;;;1999.90;999.90;;;;;;;22.17;53.54;101591.88;5047849;28;20386;-68
2023/05/22 05:01:21;;;;;;;1999.90;999.90;;;;;;;23.17;50.26;101600.38;5048687;28;20453;-67
2023/05/22 05:03:47;;;;;;;1999.90;999.90;;;;;;;22.53;51.26;101599.94;5050910;28;20029;-67
2023/05/22 05:06:13;;;;;;;1999.90;999.90;;;;;;;21.95;53.04;101602.66;5048144;28;20036;-67
2023/05/22 05:08:38;;;;;;;1999.90;999.90;;;;;;;21.78;54.92;101598.97;5049549;28;20120;-67
2023/05/22 05:11:06;;;;;;;1999.90;999.90;;;;;;;22.84;51.14;101598.44;5048268;28;20039;-66
2023/05/22 05:13:32;;;;;;;1999.90;999.90;;;;;;;22.61;51.95;101601.38;5050302;28;20025;-67
2023/05/22 05:15:58;;;;;;;1999.90;999.90;;;;;;;23.48;49.52;101601.47;5059638;28;20036;-67
2023/05/22 05:18:25;;;;;;;1999.90;999.90;;;;;;;23.50;49.78;101602.22;5065930;28;20768;-67
2023/05/22 05:20:50;;;;;;;1999.90;999.90;;;;;;;23.24;50.26;101608.91;5056367;28;20029;-67
2023/05/22 05:23:16;;;;;;;1999.90;999.90;;;;;;;23.64;48.62;101605.97;5050391;28;20530;-67
2023/05/22 05:25:41;;;;;;;1999.90;999.90;;;;;;;23.44;50.32;101601.69;5062854;28;20366;-67
2023/05/22 05:28:10;;;;;;;1999.90;999.90;;;;;;;23.03;50.85;101602.84;5046784;28;20112;-67
2023/05/22 05:30:39;;;;;;;1999.90;999.90;;;;;;;23.51;48.79;101609.28;5048009;28;20544;-67
2023/05/22 05:33:05;;;;;;;1999.90;999.90;;;;;;;22.52;51.40;101610.69;5063390;28;20078;-68
2023/05/22 05:35:30;;;;;;;1999.90;999.90;;;;;;;23.29;49.18;101614.03;5052940;28;20488;-67
2023/05/22 05:37:57;;;;;;;1999.90;999.90;;;;;;;22.64;51.25;101622.53;5057426;28;20443;-66
2023/05/22 05:40:23;;;;;;;1999.90;999.90;;;;;;;23.14;49.70;101621.84;5058479;28;20090;-68
2023/05/22 05:42:48;;;;;;;1999.90;999.90;;;;;;;22.97;50.02;101613.81;5051524;28;20025;-67
2023/05/22 05:45:14;;;;;;;1999.90;999.90;;;;;;;22.71;51.36;101613.31;5052127;28;20038;-67
2023/05/22 05:47:40;;;;;;;1999.90;999.90;;;;;;;23.19;50.22;101609.16;5054033;28;20029;-66
2023/05/22 05:50:06;;;;;;;1999.90;999.90;;;;;;;23.81;49.64;101610.41;5051905;28;20025;-67
2023/05/22 05:52:32;;;;;;;1999.90;999.90;;;;;;;23.19;49.84;101608.28;5060317;28;20078;-67
2023/05/22 05:54:59;;;;;;;1999.90;999.90;;;;;;;24.04;48.98;101623.44;5069108;28;20033;-67
2023/05/22 05:57:25;;;;;;;1999.90;999.90;;;;;;;22.46;52.31;101622.50;5051665;28;20060;-67
2023/05/22 05:59:51;;;;;;;1999.90;999.90;;;;;;;24.42;47.38;101616.91;5049716;28;20032;-67
2023/05/22 06:02:16;;;;;;;1999.90;999.90;;;;;;;23.19;49.74;101630.50;5052278;28;20033;-66
2023/05/22 06:04:42;;;;;;;1999.90;999.90;;;;;;;24.88;47.40;101625.00;5055599;28;20090;-67
2023/05/22 06:07:07;;;;;;;1999.90;999.90;;;;;;;24.65;46.44;101628.16;5056243;28;20039;-67
2023/05/22 06:09:33;;;;;;;1999.90;999.90;;;;;;;24.06;47.62;101626.00;5052792;28;20035;-67
2023/05/22 06:11:58;;;;;;;1999.90;999.90;;;;;;;24.29;47.88;101627.41;5050610;28;20113;-67
2023/05/22 06:14:23;;;;;;;1999.90;999.90;;;;;;;23.82;47.99;101647.72;5050129;28;20061;-68
2023/05/22 06:16:49;;;;;;;1999.90;999.90;;;;;;;23.38;48.92;101634.88;5070332;28;20093;-67
2023/05/22 06:19:14;;;;;;;1999.90;999.90;;;;;;;25.15;45.30;101637.69;5057912;28;20051;-67
2023/05/22 06:21:40;;;;;;;1999.90;999.90;;;;;;;24.62;46.46;101639.88;5063096;28;20036;-67
2023/05/22 06:24:05;;;;;;;1999.90;999.90;;;;;;;24.75;46.47;101645.38;5060358;28;20031;-67
2023/05/22 06:26:31;;;;;;;1999.90;999.90;;;;;;;25.57;44.40;101654.00;5057095;28;20087;-67
2023/05/22 06:28:57;;;;;;;1999.90;999.90;;;;;;;25.73;43.70;101649.44;5050434;28;20025;-68
2023/05/22 06:31:23;;;;;;;1999.90;999.90;;;;;;;24.17;47.65;101644.97;5052140;28;20422;-68
2023/05/22 06:33:48;;;;;;;1999.90;999.90;;;;;;;24.64;46.85;101643.28;5067013;28;20028;-67
2023/05/22 06:36:14;;;;;;;1999.90;999.90;;;;;;;25.25;45.15;101648.69;5052067;28;20704;-67
2023/05/22 06:38:40;;;;;;;1999.90;999.90;;;;;;;25.53;44.17;101655.97;5059148;28;20469;-67
2023/05/22 06:41:06;;;;;;;1999.90;999.90;;;;;;;24.98;45.61;101661.91;5050214;28;20032;-67
2023/05/22 06:43:32;;;;;;;1999.90;999.90;;;;;;;23.54;48.61;101659.81;5070863;28;20039;-67
2023/05/22 06:45:57;;;;;;;1999.90;999.90;;;;;;;24.47;47.18;101654.91;5068054;28;20028;-66
2023/05/22 06:48:23;;;;;;;1999.90;999.90;;;;;;;25.29;45.02;101654.75;5066010;28;20495;-67
2023/05/22 06:50:48;;;;;;;1999.90;999.90;;;;;;;24.79;46.50;101657.59;5061986;28;20389;-67
2023/05/22 06:53:13;;;;;;;1999.90;999.90;;;;;;;25.17;45.98;101651.84;5056236;28;20056;-67
2023/05/22 06:55:39;;;;;;;1999.90;999.90;;;;;;;24.29;48.07;101648.78;5068874;28;20032;-67
2023/05/22 06:58:04;;;;;;;1999.90;999.90;;;;;;;24.68;46.65;101644.00;5069081;28;20049;-67
2023/05/22 07:00:29;;;;;;;1999.90;999.90;;;;;;;23.84;48.29;101658.31;5070010;28;20029;-67
2023/05/22 07:02:56;;;;;;;1999.90;999.90;;;;;;;24.82;46.32;101652.06;5057173;28;20479;-67
2023/05/22 07:05:21;;;;;;;1999.90;999.90;;;;;;;24.97;46.66;101660.19;5060983;28;20113;-67
2023/05/22 07:07:47;;;;;;;1999.90;999.90;;;;;;;24.98;46.73;101656.56;5065683;28;20106;-67
2023/05/22 07:10:12;;;;;;;1999.90;999.90;;;;;;;25.36;46.37;101656.13;5067070;28;20040;-68
2023/05/22 07:12:37;;;;;;;1999.90;999.90;;;;;;;25.12;45.62;101656.59;5055435;28;20388;-65
2023/05/22 07:15:10;;;;;;;1999.90;999.90;;;;;;;24.67;47.82;101648.47;5050135;28;20119;-65
2023/05/22 07:17:35;;;;;;;;;;;;;;;25.24;46.47;101661.22;5055713;28;20060;-66
2023/05/22 07:20:01;;;;;;;1999.90;999.90;;;;;;;25.09;46.59;101670.16;5050432;28;19908;-65
2023/05/22 07:22:26;;;;;;;1999.90;999.90;;;;;;;25.13;47.00;101666.34;5052367;28;20037;-64
2023/05/22 07:24:51;;;;;;;1999.90;999.90;;;;;;;25.51;45.79;101676.63;5050267;28;20025;-65
2023/05/22 07:27:17;;;;;;;1999.90;999.90;;;;;;;24.82;47.36;101667.25;5058270;28;20021;-66
2023/05/22 07:29:42;;;;;;;1999.90;999.90;;;;;;;27.19;43.03;101667.84;5049434;28;20036;-65
2023/05/22 07:32:08;;;;;;;1999.90;999.90;;;;;;;26.27;44.06;101673.81;5051132;28;20086;-65
2023/05/22 07:34:33;;;;;;;1999.90;999.90;;;;;;;26.15;43.98;101681.69;5050260;28;20032;-65
2023/05/22 07:37:00;;;;;;;1999.90;999.90;;;;;;;26.50;43.85;101681.28;5057508;28;20033;-69
2023/05/22 07:39:25;;;;;;;1999.90;999.90;;;;;;;27.35;42.17;101669.50;5060593;28;20068;-69
2023/05/22 07:41:51;;;;;;;1999.90;999.90;;;;;;;28.35;40.32;101680.50;5068778;28;20504;-69
2023/05/22 07:44:16;;;;;;;1999.90;999.90;;;;;;;28.03;41.45;101672.94;5067474;28;20043;-69
2023/05/22 07:46:42;;;;;;;1999.90;999.90;;;;;;;29.50;39.03;101676.47;5064268;28;20028;-70
2023/05/22 07:49:08;;;;;;;1999.90;999.90;;;;;;;29.27;38.81;101676.41;5062269;28;21048;-69
2023/05/22 07:51:33;;;;;;;1999.90;999.90;;;;;;;30.91;35.91;101665.28;5053570;28;20021;-70
2023/05/22 07:53:59;;;;;;;1999.90;999.90;;;;;;;31.05;35.61;101675.81;5049685;28;20025;-70
2023/05/22 07:56:26;;;;;;;20.75;18.75;;;;;;;30.98;35.40;101666.47;5049087;28;20029;-70
2023/05/22 07:58:51;;;;;;;23.48;18.27;;;;;;;31.53;34.15;101668.19;5058735;28;20580;-69
2023/05/22 08:01:17;;;;;;;22.45;18.50;;;;;;;31.75;34.43;101678.00;5052910;28;20063;-69
2023/05/22 08:03:42;;;;;;;21.58;18.92;;;;;;;31.12;35.06;101676.16;5049261;28;20503;-69
2023/05/22 08:06:08;;;;;;;19.27;17.48;;;;;;;31.17;34.72;101679.31;5053060;28;20043;-70
2023/05/22 08:08:33;;;;;;;20.65;18.67;;;;;;;30.29;36.47;101684.66;5060903;28;20013;-70
2023/05/22 08:10:59;;;;;;;20.95;19.10;;;;;;;31.43;34.96;101678.94;5068757;28;20485;-70
2023/05/22 08:13:24;;;;;;;1999.90;999.90;;;;;;;31.08;35.89;101680.09;5068105;28;20040;-71
2023/05/22 08:15:50;;;;;;;1999.90;999.90;;;;;;;31.19;34.06;101677.34;5040513;28;20440;-71
2023/05/22 08:18:16;;;;;;;1999.90;999.90;;;;;;;32.18;34.38;101684.19;5058355;28;20652;-70
2023/05/22 08:20:41;;;;;;;1505.53;754.95;;;;;;;32.37;33.01;101678.00;5056147;28;20020;-68
2023/05/22 08:23:06;;;;;;;1505.53;755.05;;;;;;;33.86;30.76;101676.06;5051248;28;20115;-71
2023/05/22 08:25:32;;;;;;;22.02;19.98;;;;;;;33.99;30.57;101680.13;5049963;28;20021;-69
2023/05/22 08:27:57;;;;;;;22.13;20.20;;;;;;;33.00;32.25;101684.97;5050995;28;20029;-69
2023/05/22 08:30:23;;;;;;;1999.90;999.90;;;;;;;34.46;30.28;101681.06;5066994;28;20236;-69
2023/05/22 08:32:48;;;;;;;1999.90;999.90;;;;;;;33.84;31.38;101678.91;5064133;28;20055;-70
2023/05/22 08:35:14;;;;;;;20.50;18.70;;;;;;;33.36;30.39;101682.53;5048704;28;20036;-69
2023/05/22 08:37:39;;;;;;;20.77;19.17;;;;;;;32.93;31.71;101674.72;5066648;28;20563;-69
2023/05/22 08:40:10;;;;;;;20.63;18.92;;;;;;;34.23;30.48;101676.00;5066610;28;20408;-70
2023/05/22 08:42:35;;;;;;;21.05;19.17;;;;;;;34.29;30.10;101671.84;5068167;28;20155;-70
2023/05/22 08:45:01;;;;;;;21.17;19.33;;;;;;;35.12;28.62;101665.44;5068172;28;20107;-69
2023/05/22 08:47:27;;;;;;;20.67;18.92;;;;;;;35.92;29.21;101665.31;5060799;28;20039;-69
2023/05/22 08:49:56;;;;;;;19.70;17.67;;;;;;;36.14;28.33;101660.31;5048608;28;20032;-69
2023/05/22 08:52:28;;;;;;;19.98;18.35;;;;;;;34.99;29.65;101657.69;5068398;28;20107;-69
2023/05/22 08:54:55;;;;;;;20.42;18.70;;;;;;;35.89;28.63;101649.34;5066733;28;20561;-70
2023/05/22 08:57:22;;;;;;;18.48;16.98;;;;;;;36.78;27.16;101654.34;5054296;28;20052;-68
2023/05/22 08:59:48;;;;;;;19.38;17.75;;;;;;;37.10;27.53;101647.25;5050900;28;20032;-70
2023/05/22 09:02:15;;;;;;;18.77;16.95;;;;;;;35.05;29.20;101661.63;5054872;28;20032;-70
2023/05/22 09:04:41;;;;;;;19.38;17.67;;;;;;;36.52;27.97;101655.38;5055310;28;20048;-70
2023/05/22 09:07:07;;;;;;;20.05;18.45;;;;;;;36.80;27.18;101657.81;5060170;28;20492;-70
2023/05/22 09:09:37;;;;;;;23.08;19.30;;;;;;;36.85;27.26;101655.44;5055597;28;20027;-70
2023/05/22 09:12:10;;;;;;;20.75;18.95;;;;;;;34.17;29.79;101660.34;5062781;28;20032;-70
2023/05/22 09:14:42;;;;;;;19.58;18.05;;;;;;;36.40;27.16;101659.41;5066338;28;20028;-70
2023/05/22 09:17:10;;;;;;;20.63;18.58;;;;;;;34.82;29.24;101662.13;5053142;28;20033;-70
2023/05/22 09:19:35;;;;;;;19.48;17.95;;;;;;;37.47;26.56;101659.50;5047646;28;20082;-70
2023/05/22 09:22:03;;;;;;;23.83;21.27;;;;;;;34.28;30.01;101660.13;5066558;28;20438;-71
2023/05/22 09:24:28;;;;;;;20.30;18.60;;;;;;;33.75;30.89;101653.50;5064141;28;20081;-69
2023/05/22 09:26:54;;;;;;;20.35;18.65;;;;;;;35.08;29.06;101655.91;5067003;28;20029;-70
2023/05/22 09:29:20;;;;;;;22.02;19.77;;;;;;;36.47;27.82;101646.84;5067071;28;20111;-69
2023/05/22 09:31:45;;;;;;;21.67;19.77;;;;;;;37.27;26.05;101654.38;5057755;28;20062;-69
2023/05/22 09:34:12;;;;;;;20.83;19.13;;;;;;;37.87;26.40;101654.97;5060108;28;20388;-69
2023/05/22 09:36:39;;;;;;;20.63;18.67;;;;;;;36.41;28.17;101647.50;5065413;28;20032;-70
2023/05/22 09:39:04;;;;;;;20.85;19.15;;;;;;;36.28;27.49;101654.22;5062853;28;20503;-71
2023/05/22 09:41:34;;;;;;;21.17;19.00;;;;;;;32.77;31.99;101663.59;5049911;28;20033;-70
2023/05/22 09:44:00;;;;;;;20.33;18.63;;;;;;;35.29;29.26;101656.38;5066387;28;20496;-70
2023/05/22 09:46:25;;;;;;;21.90;20.02;;;;;;;35.13;28.59;101656.25;5056952;28;20074;-69
2023/05/22 09:48:53;;;;;;;20.75;19.15;;;;;;;36.00;28.34;101656.34;5047269;28;20024;-69
2023/05/22 09:51:28;;;;;;;21.80;20.00;;;;;;;37.56;27.60;101647.53;5046395;28;20112;-70
2023/05/22 09:54:02;;;;;;;21.23;19.40;;;;;;;36.20;29.13;101659.66;5046940;28;20040;-70
2023/05/22 09:56:30;;;;;;;21.08;19.27;;;;;;;36.63;28.68;101652.31;5061063;28;20028;-70
2023/05/22 09:58:57;;;;;;;20.77;19.02;;;;;;;36.74;27.75;101648.41;5057836;28;20102;-69
2023/05/22 10:01:24;;;;;;;21.75;19.65;;;;;;;36.84;26.43;101649.13;5057425;28;20490;-69
2023/05/22 10:03:53;;;;;;;19.88;18.20;;;;;;;36.76;26.88;101645.53;5057355;28;20036;-69
2023/05/22 10:06:22;;;;;;;20.23;18.20;;;;;;;37.63;25.86;101643.09;5054350;28;20461;-70
2023/05/22 10:09:01;;;;;;;20.83;19.23;;;;;;;38.12;25.20;101642.06;5047706;28;20025;-70
2023/05/22 10:11:28;;;;;;;21.73;19.80;;;;;;;36.90;26.19;101647.59;5061876;28;20028;-70
2023/05/22 10:13:57;;;;;;;20.00;18.38;;;;;;;36.18;26.94;101650.81;5057391;28;20024;-70
2023/05/22 10:16:24;;;;;;;20.95;19.15;;;;;;;34.82;28.79;101651.25;5072434;28;20081;-70
2023/05/22 10:18:51;;;;;;;21.95;19.88;;;;;;;35.10;29.68;101645.72;5060553;28;20036;-69
2023/05/22 10:21:16;;;;;;;22.77;20.45;;;;;;;36.73;27.78;101645.88;5051473;28;20159;-70
2023/05/22 10:23:43;;;;;;;22.23;20.20;;;;;;;37.65;26.16;101651.09;5055056;28;20119;-70
2023/05/22 10:26:09;;;;;;;22.92;21.02;;;;;;;37.26;26.82;101636.34;5065390;28;20043;-70
2023/05/22 10:28:41;;;;;;;21.88;20.17;;;;;;;39.08;24.39;101652.72;5051808;28;20484;-71
2023/05/22 10:31:16;;;;;;;21.23;19.33;;;;;;;37.07;26.21;101636.69;5069887;28;20028;-71
2023/05/22 10:33:46;;;;;;;20.38;18.55;;;;;;;36.38;27.74;101642.38;5063878;28;20037;-71
2023/05/22 10:36:41;;;;;;;20.65;18.80;;;;;;;36.54;27.29;101636.97;5059935;28;20020;-70
2023/05/22 10:39:22;;;;;;;21.75;20.10;;;;;;;37.75;25.83;101640.00;5032662;28;20041;-69
2023/05/22 10:41:48;;;;;;;21.45;19.52;;;;;;;38.02;24.99;101633.25;5068433;28;20514;-72
2023/05/22 10:44:13;;;;;;;21.10;19.35;;;;;;;36.67;27.22;101633.75;5076744;28;20123;-71
2023/05/22 10:46:39;;;;;;;21.45;19.65;;;;;;;37.64;25.54;101628.44;5081454;28;20024;-72
2023/05/22 10:49:04;;;;;;;20.35;18.55;;;;;;;38.72;24.60;101625.19;5062063;28;20504;-71
2023/05/22 10:51:33;;;;;;;19.73;18.13;;;;;;;39.00;24.91;101633.66;5066605;28;20518;-72